sensor_id;sensor_type;location;lat;lon;timestamp;pressure;altitude;pressure_sealevel;temperature;humidity
62038;BME280;47991;42.974;12.082;2023-04-24T00:00:05;97243.81;;;13.44;70.94
62038;BME280;47991;42.974;12.082;2023-04-24T00:02:32;97241.41;;;13.38;71.48
62038;BME280;47991;42.974;12.082;2023-04-24T00:04:59;97232.09;;;13.36;71.67
62038;BME280;47991;42.974;12.082;2023-04-24T00:07:29;97237.60;;;13.36;71.45
62038;BME280;47991;42.974;12.082;2023-04-24T00:09:58;97242.27;;;13.39;71.07
62038;BME280;47991;42.974;12.082;2023-04-24T00:12:27;97239.13;;;13.42;71.07
62038;BME280;47991;42.974;12.082;2023-04-24T00:14:54;97239.27;;;13.43;71.07
62038;BME280;47991;42.974;12.082;2023-04-24T00:17:20;97227.23;;;13.30;71.66
62038;BME280;47991;42.974;12.082;2023-04-24T00:19:48;97231.07;;;13.36;71.49
62038;BME280;47991;42.974;12.082;2023-04-24T00:22:17;97225.50;;;13.29;72.17
62038;BME280;47991;42.974;12.082;2023-04-24T00:24:46;97223.84;;;13.31;71.76
62038;BME280;47991;42.974;12.082;2023-04-24T00:27:13;97223.87;;;13.22;72.66
62038;BME280;47991;42.974;12.082;2023-04-24T00:29:39;97225.28;;;13.30;71.93
62038;BME280;47991;42.974;12.082;2023-04-24T00:32:07;97224.58;;;13.26;71.88
62038;BME280;47991;42.974;12.082;2023-04-24T00:34:35;97220.91;;;13.17;72.91
62038;BME280;47991;42.974;12.082;2023-04-24T00:37:15;97226.72;;;13.18;72.74
62038;BME280;47991;42.974;12.082;2023-04-24T00:39:45;97230.69;;;13.21;72.63
62038;BME280;47991;42.974;12.082;2023-04-24T00:42:11;97224.92;;;13.19;72.88
62038;BME280;47991;42.974;12.082;2023-04-24T03:47:01;97049.88;;;12.80;82.97
62038;BME280;47991;42.974;12.082;2023-04-24T03:49:28;97050.84;;;12.86;81.84
62038;BME280;47991;42.974;12.082;2023-04-24T03:51:54;97055.39;;;12.87;82.09
62038;BME280;47991;42.974;12.082;2023-04-24T03:54:20;97054.16;;;12.94;81.76
62038;BME280;47991;42.974;12.082;2023-04-24T03:56:49;97052.52;;;12.91;81.91
62038;BME280;47991;42.974;12.082;2023-04-24T03:59:16;97054.69;;;12.90;81.77
62038;BME280;47991;42.974;12.082;2023-04-24T04:01:42;97063.12;;;12.88;81.79
62038;BME280;47991;42.974;12.082;2023-04-24T04:04:08;97060.48;;;12.92;81.67
62038;BME280;47991;42.974;12.082;2023-04-24T04:06:35;97060.30;;;12.92;81.95
62038;BME280;47991;42.974;12.082;2023-04-24T04:09:02;97066.69;;;12.96;81.55
62038;BME280;47991;42.974;12.082;2023-04-24T04:11:34;97067.35;;;13.00;81.50
62038;BME280;47991;42.974;12.082;2023-04-24T04:14:02;97065.13;;;12.98;82.11
62038;BME280;47991;42.974;12.082;2023-04-24T04:16:38;97061.45;;;12.97;81.74
62038;BME280;47991;42.974;12.082;2023-04-24T04:19:04;97060.20;;;12.94;82.37
62038;BME280;47991;42.974;12.082;2023-04-24T04:21:31;97059.95;;;12.95;82.10
62038;BME280;47991;42.974;12.082;2023-04-24T04:23:58;97060.75;;;12.97;82.01
62038;BME280;47991;42.974;12.082;2023-04-24T04:26:24;97059.69;;;12.97;82.16
62038;BME280;47991;42.974;12.082;2023-04-24T04:28:52;97058.76;;;12.98;82.29
62038;BME280;47991;42.974;12.082;2023-04-24T04:31:25;97055.02;;;12.95;82.13
62038;BME280;47991;42.974;12.082;2023-04-24T04:34:03;97055.37;;;12.98;82.28
62038;BME280;47991;42.974;12.082;2023-04-24T04:36:33;97051.75;;;13.00;82.21
62038;BME280;47991;42.974;12.082;2023-04-24T04:39:03;97053.46;;;13.01;82.48
62038;BME280;47991;42.974;12.082;2023-04-24T04:41:32;97045.39;;;12.92;83.31
62038;BME280;47991;42.974;12.082;2023-04-24T04:44:01;97051.39;;;12.93;83.35
62038;BME280;47991;42.974;12.082;2023-04-24T04:46:31;97050.97;;;12.90;83.27
62038;BME280;47991;42.974;12.082;2023-04-24T04:49:14;97049.88;;;12.91;83.37
62038;BME280;47991;42.974;12.082;2023-04-24T04:51:45;97057.78;;;12.92;83.23
62038;BME280;47991;42.974;12.082;2023-04-24T04:54:12;97061.61;;;12.94;83.18
62038;BME280;47991;42.974;12.082;2023-04-24T04:56:38;97056.89;;;12.93;83.24
62038;BME280;47991;42.974;12.082;2023-04-24T04:59:04;97061.11;;;12.90;83.67
62038;BME280;47991;42.974;12.082;2023-04-24T05:01:35;97056.67;;;12.90;83.33
62038;BME280;47991;42.974;12.082;2023-04-24T05:04:06;97057.31;;;12.88;83.94
62038;BME280;47991;42.974;12.082;2023-04-24T05:06:42;97055.05;;;12.90;83.67
62038;BME280;47991;42.974;12.082;2023-04-24T05:09:08;97059.94;;;12.85;84.45
62038;BME280;47991;42.974;12.082;2023-04-24T05:11:42;97062.69;;;12.83;84.54
62038;BME280;47991;42.974;12.082;2023-04-24T05:14:08;97061.30;;;12.82;84.48
62038;BME280;47991;42.974;12.082;2023-04-24T05:16:35;97054.54;;;12.79;85.10
62038;BME280;47991;42.974;12.082;2023-04-24T05:19:10;97052.55;;;12.76;85.32
62038;BME280;47991;42.974;12.082;2023-04-24T05:21:47;97061.45;;;12.72;86.02
62038;BME280;47991;42.974;12.082;2023-04-24T05:24:22;97062.72;;;12.75;86.16
62038;BME280;47991;42.974;12.082;2023-04-24T05:26:51;97062.00;;;12.71;86.57
62038;BME280;47991;42.974;12.082;2023-04-24T05:29:21;97051.45;;;12.65;87.26
62038;BME280;47991;42.974;12.082;2023-04-24T05:31:48;97028.88;;;12.56;87.54
62038;BME280;47991;42.974;12.082;2023-04-24T05:34:17;97015.45;;;12.55;87.74
62038;BME280;47991;42.974;12.082;2023-04-24T05:36:44;97004.90;;;12.53;87.87
62038;BME280;47991;42.974;12.082;2023-04-24T05:39:14;96993.33;;;12.54;87.64
62038;BME280;47991;42.974;12.082;2023-04-24T05:41:42;96984.27;;;12.47;87.98
62038;BME280;47991;42.974;12.082;2023-04-24T05:44:09;96990.61;;;12.44;87.66
62038;BME280;47991;42.974;12.082;2023-04-24T05:46:35;96994.71;;;12.51;86.34
62038;BME280;47991;42.974;12.082;2023-04-24T05:55:07;97006.48;;;12.61;84.88
62038;BME280;47991;42.974;12.082;2023-04-24T05:57:43;97020.38;;;12.59;85.19
62038;BME280;47991;42.974;12.082;2023-04-24T06:00:30;97026.38;;;12.64;84.80
62038;BME280;47991;42.974;12.082;2023-04-24T06:03:00;97021.26;;;12.67;84.66
62038;BME280;47991;42.974;12.082;2023-04-24T06:05:27;97012.10;;;12.62;85.05
62038;BME280;47991;42.974;12.082;2023-04-24T06:07:54;97002.34;;;12.55;85.60
62038;BME280;47991;42.974;12.082;2023-04-24T06:10:20;97010.13;;;12.59;85.00
62038;BME280;47991;42.974;12.082;2023-04-24T06:12:47;97021.55;;;12.61;84.67
62038;BME280;47991;42.974;12.082;2023-04-24T06:15:13;97018.91;;;12.64;84.81
62038;BME280;47991;42.974;12.082;2023-04-24T06:17:39;97019.92;;;12.65;85.18
62038;BME280;47991;42.974;12.082;2023-04-24T06:20:06;97023.83;;;12.69;85.29
62038;BME280;47991;42.974;12.082;2023-04-24T06:22:34;97029.70;;;12.76;84.97
62038;BME280;47991;42.974;12.082;2023-04-24T06:25:01;97028.36;;;12.81;84.85
62038;BME280;47991;42.974;12.082;2023-04-24T06:27:28;97026.80;;;12.88;84.71
62038;BME280;47991;42.974;12.082;2023-04-24T06:29:55;97028.34;;;12.92;84.58
62038;BME280;47991;42.974;12.082;2023-04-24T06:32:22;97035.29;;;12.99;84.53
62038;BME280;47991;42.974;12.082;2023-04-24T06:34:52;97038.02;;;12.98;84.43
62038;BME280;47991;42.974;12.082;2023-04-24T06:37:20;97040.70;;;12.97;84.72
62038;BME280;47991;42.974;12.082;2023-04-24T06:39:46;97037.30;;;13.01;84.64
62038;BME280;47991;42.974;12.082;2023-04-24T06:42:13;97028.23;;;12.95;85.52
62038;BME280;47991;42.974;12.082;2023-04-24T06:44:39;97019.63;;;12.96;85.35
62038;BME280;47991;42.974;12.082;2023-04-24T06:47:12;97015.55;;;12.96;85.81
62038;BME280;47991;42.974;12.082;2023-04-24T06:49:41;97015.45;;;13.05;85.60
62038;BME280;47991;42.974;12.082;2023-04-24T06:52:08;97018.16;;;13.11;85.69
62038;BME280;47991;42.974;12.082;2023-04-24T06:54:43;97019.39;;;13.22;85.04
62038;BME280;47991;42.974;12.082;2023-04-24T06:57:10;97022.25;;;13.33;84.71
62038;BME280;47991;42.974;12.082;2023-04-24T06:59:37;97030.02;;;13.61;84.22
62038;BME280;47991;42.974;12.082;2023-04-24T07:02:04;97033.49;;;14.16;82.30
62038;BME280;47991;42.974;12.082;2023-04-24T07:04:32;97034.17;;;14.39;81.33
62038;BME280;47991;42.974;12.082;2023-04-24T07:06:59;97026.09;;;14.61;80.52
62038;BME280;47991;42.974;12.082;2023-04-24T07:09:31;97007.80;;;14.57;81.04
62038;BME280;47991;42.974;12.082;2023-04-24T07:12:01;97006.25;;;14.59;81.37
62038;BME280;47991;42.974;12.082;2023-04-24T07:14:28;97012.27;;;14.88;80.80
62038;BME280;47991;42.974;12.082;2023-04-24T07:16:55;97019.21;;;15.15;79.63
62038;BME280;47991;42.974;12.082;2023-04-24T07:19:22;97013.98;;;15.25;78.61
62038;BME280;47991;42.974;12.082;2023-04-24T07:21:49;97002.00;;;15.17;78.92
62038;BME280;47991;42.974;12.082;2023-04-24T07:24:15;97018.80;;;15.25;78.57
62038;BME280;47991;42.974;12.082;2023-04-24T07:26:41;97029.79;;;15.44;78.03
62038;BME280;47991;42.974;12.082;2023-04-24T07:29:08;97030.25;;;15.54;77.40
62038;BME280;47991;42.974;12.082;2023-04-24T07:31:34;97027.46;;;15.59;76.78
62038;BME280;47991;42.974;12.082;2023-04-24T07:34:03;97030.65;;;15.54;76.60
62038;BME280;47991;42.974;12.082;2023-04-24T07:36:34;97034.29;;;15.28;77.31
62038;BME280;47991;42.974;12.082;2023-04-24T07:39:00;97036.98;;;15.25;77.51
62038;BME280;47991;42.974;12.082;2023-04-24T07:41:26;97035.59;;;15.12;77.65
62038;BME280;47991;42.974;12.082;2023-04-24T07:43:54;97030.95;;;14.97;78.39
62038;BME280;47991;42.974;12.082;2023-04-24T07:46:20;97037.46;;;15.02;77.87
62038;BME280;47991;42.974;12.082;2023-04-24T07:48:47;97035.02;;;15.04;77.80
62038;BME280;47991;42.974;12.082;2023-04-24T07:51:34;97035.73;;;15.01;77.99
62038;BME280;47991;42.974;12.082;2023-04-24T07:54:04;97031.48;;;14.97;77.85
62038;BME280;47991;42.974;12.082;2023-04-24T07:56:38;97029.50;;;14.79;78.69
62038;BME280;47991;42.974;12.082;2023-04-24T07:59:05;97031.76;;;14.71;78.98
62038;BME280;47991;42.974;12.082;2023-04-24T08:01:38;97038.23;;;14.63;79.11
62038;BME280;47991;42.974;12.082;2023-04-24T08:04:04;97044.40;;;14.54;79.09
62038;BME280;47991;42.974;12.082;2023-04-24T08:06:30;97051.16;;;14.41;79.82
62038;BME280;47991;42.974;12.082;2023-04-24T08:08:57;97045.78;;;14.39;79.34
62038;BME280;47991;42.974;12.082;2023-04-24T08:11:24;97037.20;;;14.36;79.78
62038;BME280;47991;42.974;12.082;2023-04-24T08:13:51;97031.61;;;14.41;79.85
62038;BME280;47991;42.974;12.082;2023-04-24T08:16:21;97031.09;;;14.69;80.85
62038;BME280;47991;42.974;12.082;2023-04-24T08:18:50;97023.23;;;15.04;79.88
62038;BME280;47991;42.974;12.082;2023-04-24T08:21:17;97018.74;;;15.44;78.65
62038;BME280;47991;42.974;12.082;2023-04-24T08:23:45;97016.30;;;15.73;76.08
62038;BME280;47991;42.974;12.082;2023-04-24T08:26:12;97010.62;;;15.79;75.00
62038;BME280;47991;42.974;12.082;2023-04-24T08:28:38;97002.69;;;15.81;75.36
62038;BME280;47991;42.974;12.082;2023-04-24T08:31:05;97003.21;;;16.07;74.57
62038;BME280;47991;42.974;12.082;2023-04-24T08:33:31;97002.05;;;16.22;73.42
62038;BME280;47991;42.974;12.082;2023-04-24T08:36:03;96999.54;;;16.23;72.84
62038;BME280;47991;42.974;12.082;2023-04-24T08:38:30;97007.90;;;15.88;73.03
62038;BME280;47991;42.974;12.082;2023-04-24T08:40:58;97009.34;;;15.94;73.86
62038;BME280;47991;42.974;12.082;2023-04-24T08:43:26;97006.61;;;16.35;72.68
62038;BME280;47991;42.974;12.082;2023-04-24T08:45:56;97001.54;;;16.72;71.67
62038;BME280;47991;42.974;12.082;2023-04-24T08:48:25;97003.71;;;17.10;68.92
62038;BME280;47991;42.974;12.082;2023-04-24T08:50:52;96999.44;;;17.23;67.18
62038;BME280;47991;42.974;12.082;2023-04-24T08:53:19;97007.19;;;17.20;66.11
62038;BME280;47991;42.974;12.082;2023-04-24T08:55:47;97004.61;;;17.36;66.84
62038;BME280;47991;42.974;12.082;2023-04-24T08:58:16;97004.45;;;17.47;64.67
62038;BME280;47991;42.974;12.082;2023-04-24T09:00:43;97003.20;;;17.70;62.74
62038;BME280;47991;42.974;12.082;2023-04-24T09:03:16;97003.31;;;17.58;62.76
62038;BME280;47991;42.974;12.082;2023-04-24T09:05:43;97005.54;;;17.47;62.63
62038;BME280;47991;42.974;12.082;2023-04-24T09:08:13;97006.48;;;17.30;61.90
62038;BME280;47991;42.974;12.082;2023-04-24T09:10:40;97006.68;;;17.08;63.24
62038;BME280;47991;42.974;12.082;2023-04-24T09:13:07;97009.07;;;16.97;62.79
62038;BME280;47991;42.974;12.082;2023-04-24T09:15:38;97004.73;;;16.75;62.81
62038;BME280;47991;42.974;12.082;2023-04-24T09:18:05;97002.89;;;16.59;64.20
62038;BME280;47991;42.974;12.082;2023-04-24T09:20:32;97008.14;;;16.56;64.62
62038;BME280;47991;42.974;12.082;2023-04-24T09:22:59;97004.09;;;16.35;65.68
62038;BME280;47991;42.974;12.082;2023-04-24T09:25:35;97010.61;;;16.25;66.60
62038;BME280;47991;42.974;12.082;2023-04-24T09:28:04;97016.45;;;16.17;68.02
62038;BME280;47991;42.974;12.082;2023-04-24T09:30:34;97023.35;;;16.04;69.37
62038;BME280;47991;42.974;12.082;2023-04-24T09:33:12;97030.29;;;15.87;70.16
62038;BME280;47991;42.974;12.082;2023-04-24T09:35:42;97030.17;;;15.77;70.91
62038;BME280;47991;42.974;12.082;2023-04-24T09:38:14;97030.08;;;15.76;71.60
62038;BME280;47991;42.974;12.082;2023-04-24T09:40:40;97030.22;;;15.91;72.73
62038;BME280;47991;42.974;12.082;2023-04-24T09:43:10;97030.51;;;15.95;74.16
62038;BME280;47991;42.974;12.082;2023-04-24T09:45:38;97033.35;;;15.78;75.40
62038;BME280;47991;42.974;12.082;2023-04-24T09:48:09;97025.48;;;15.81;74.81
62038;BME280;47991;42.974;12.082;2023-04-24T09:50:35;97018.84;;;15.82;75.61
62038;BME280;47991;42.974;12.082;2023-04-24T09:53:04;97014.92;;;16.25;74.20
62038;BME280;47991;42.974;12.082;2023-04-24T09:55:30;97011.48;;;16.56;72.90
62038;BME280;47991;42.974;12.082;2023-04-24T09:58:00;97013.75;;;16.71;72.61
62038;BME280;47991;42.974;12.082;2023-04-24T10:00:29;97015.43;;;16.61;73.62
62038;BME280;47991;42.974;12.082;2023-04-24T10:03:03;97017.52;;;16.62;72.94
62038;BME280;47991;42.974;12.082;2023-04-24T10:05:32;97014.52;;;16.61;72.93
62038;BME280;47991;42.974;12.082;2023-04-24T10:08:08;97009.07;;;16.66;71.65
62038;BME280;47991;42.974;12.082;2023-04-24T10:10:39;97005.92;;;17.09;72.99
62038;BME280;47991;42.974;12.082;2023-04-24T10:13:08;97001.84;;;17.51;71.65
62038;BME280;47991;42.974;12.082;2023-04-24T10:15:36;96996.33;;;17.77;69.53
62038;BME280;47991;42.974;12.082;2023-04-24T10:18:04;96997.69;;;18.09;64.99
62038;BME280;47991;42.974;12.082;2023-04-24T10:20:33;96988.89;;;18.17;62.43
62038;BME280;47991;42.974;12.082;2023-04-24T10:23:00;96986.95;;;18.46;64.14
62038;BME280;47991;42.974;12.082;2023-04-24T10:25:31;96981.21;;;18.88;59.23
62038;BME280;47991;42.974;12.082;2023-04-24T10:28:10;96965.79;;;19.31;53.69
62038;BME280;47991;42.974;12.082;2023-04-24T10:30:42;96956.05;;;19.53;50.40
62038;BME280;47991;42.974;12.082;2023-04-24T10:33:10;96953.51;;;19.58;48.06
62038;BME280;47991;42.974;12.082;2023-04-24T10:35:41;96956.38;;;19.77;47.11
62038;BME280;47991;42.974;12.082;2023-04-24T10:38:17;96957.23;;;19.89;47.33
62038;BME280;47991;42.974;12.082;2023-04-24T10:40:45;96960.66;;;20.13;47.08
62038;BME280;47991;42.974;12.082;2023-04-24T10:43:16;96957.16;;;20.32;44.67
62038;BME280;47991;42.974;12.082;2023-04-24T10:46:03;96961.06;;;20.42;44.41
62038;BME280;47991;42.974;12.082;2023-04-24T10:48:29;96955.83;;;20.47;44.08
62038;BME280;47991;42.974;12.082;2023-04-24T10:50:58;96959.82;;;20.55;43.57
62038;BME280;47991;42.974;12.082;2023-04-24T10:53:34;96957.67;;;20.62;43.91
62038;BME280;47991;42.974;12.082;2023-04-24T10:56:05;96954.46;;;20.62;43.39
62038;BME280;47991;42.974;12.082;2023-04-24T10:58:42;96963.05;;;20.78;43.57
62038;BME280;47991;42.974;12.082;2023-04-24T11:04:11;96967.54;;;20.99;43.19
62038;BME280;47991;42.974;12.082;2023-04-24T11:06:40;96954.35;;;21.02;43.01
62038;BME280;47991;42.974;12.082;2023-04-24T11:09:14;96963.48;;;20.98;43.44
62038;BME280;47991;42.974;12.082;2023-04-24T11:11:46;96958.05;;;21.01;42.55
62038;BME280;47991;42.974;12.082;2023-04-24T11:14:16;96955.21;;;20.92;42.22
62038;BME280;47991;42.974;12.082;2023-04-24T11:16:54;96954.30;;;20.88;42.06
62038;BME280;47991;42.974;12.082;2023-04-24T11:19:27;96957.41;;;20.67;42.61
62038;BME280;47991;42.974;12.082;2023-04-24T11:24:39;96954.14;;;20.77;40.48
62038;BME280;47991;42.974;12.082;2023-04-24T11:27:14;96948.84;;;20.86;39.95
62038;BME280;47991;42.974;12.082;2023-04-24T11:29:47;96948.13;;;21.06;40.32
62038;BME280;47991;42.974;12.082;2023-04-24T11:32:26;96937.90;;;21.18;38.52
62038;BME280;47991;42.974;12.082;2023-04-24T11:35:13;96951.52;;;21.06;38.97
62038;BME280;47991;42.974;12.082;2023-04-24T11:37:44;96953.29;;;21.26;40.17
62038;BME280;47991;42.974;12.082;2023-04-24T11:40:17;96956.02;;;21.29;39.06
62038;BME280;47991;42.974;12.082;2023-04-24T11:42:45;96959.95;;;21.17;40.79
62038;BME280;47991;42.974;12.082;2023-04-24T11:45:17;96957.20;;;21.26;41.63
62038;BME280;47991;42.974;12.082;2023-04-24T11:47:47;96952.40;;;21.49;39.72
62038;BME280;47991;42.974;12.082;2023-04-24T11:50:24;96967.73;;;21.51;40.18
62038;BME280;47991;42.974;12.082;2023-04-24T11:52:56;96956.56;;;21.59;39.92
62038;BME280;47991;42.974;12.082;2023-04-24T11:55:29;96947.98;;;21.73;39.43
62038;BME280;47991;42.974;12.082;2023-04-24T11:57:57;96962.36;;;21.80;39.77
62038;BME280;47991;42.974;12.082;2023-04-24T12:00:29;96959.88;;;21.88;39.97
62038;BME280;47991;42.974;12.082;2023-04-24T12:03:17;96958.15;;;21.93;39.87
62038;BME280;47991;42.974;12.082;2023-04-24T12:05:43;96958.52;;;21.76;38.98
62038;BME280;47991;42.974;12.082;2023-04-24T12:08:29;96964.40;;;21.77;38.63
62038;BME280;47991;42.974;12.082;2023-04-24T12:10:56;96963.67;;;21.67;38.36
62038;BME280;47991;42.974;12.082;2023-04-24T12:13:36;96962.93;;;21.61;38.66
62038;BME280;47991;42.974;12.082;2023-04-24T12:16:03;96964.61;;;21.54;38.50
62038;BME280;47991;42.974;12.082;2023-04-24T12:18:33;96963.83;;;21.59;38.25
62038;BME280;47991;42.974;12.082;2023-04-24T12:21:23;96962.73;;;21.61;38.83
62038;BME280;47991;42.974;12.082;2023-04-24T12:23:54;96969.34;;;21.38;38.31
62038;BME280;47991;42.974;12.082;2023-04-24T12:26:24;96968.75;;;21.40;38.01
62038;BME280;47991;42.974;12.082;2023-04-24T12:28:51;96967.86;;;21.45;37.70
62038;BME280;47991;42.974;12.082;2023-04-24T12:31:20;96964.75;;;21.30;37.26
62038;BME280;47991;42.974;12.082;2023-04-24T12:33:48;96970.34;;;21.26;38.30
62038;BME280;47991;42.974;12.082;2023-04-24T12:36:14;96960.99;;;21.36;37.16
62038;BME280;47991;42.974;12.082;2023-04-24T12:38:46;96956.32;;;21.37;37.44
62038;BME280;47991;42.974;12.082;2023-04-24T12:41:18;96957.32;;;21.49;37.78
62038;BME280;47991;42.974;12.082;2023-04-24T12:43:52;96949.59;;;21.61;37.83
62038;BME280;47991;42.974;12.082;2023-04-24T12:46:18;96947.48;;;21.77;37.75
62038;BME280;47991;42.974;12.082;2023-04-24T12:48:45;96944.51;;;21.88;37.39
62038;BME280;47991;42.974;12.082;2023-04-24T12:51:16;96936.45;;;21.84;36.95
62038;BME280;47991;42.974;12.082;2023-04-24T12:53:43;96928.10;;;21.68;36.84
62038;BME280;47991;42.974;12.082;2023-04-24T12:56:11;96928.02;;;21.52;37.01
62038;BME280;47991;42.974;12.082;2023-04-24T12:58:37;96933.20;;;21.46;37.33
62038;BME280;47991;42.974;12.082;2023-04-24T13:01:07;96927.39;;;21.64;37.85
62038;BME280;47991;42.974;12.082;2023-04-24T13:03:36;96927.67;;;21.92;38.55
62038;BME280;47991;42.974;12.082;2023-04-24T13:06:16;96924.80;;;21.90;36.96
62038;BME280;47991;42.974;12.082;2023-04-24T13:08:43;96925.94;;;21.85;37.44
62038;BME280;47991;42.974;12.082;2023-04-24T13:11:10;96917.41;;;22.02;37.72
62038;BME280;47991;42.974;12.082;2023-04-24T13:13:39;96911.53;;;22.26;37.84
62038;BME280;47991;42.974;12.082;2023-04-24T13:16:05;96917.08;;;22.51;37.57
62038;BME280;47991;42.974;12.082;2023-04-24T13:18:31;96919.63;;;22.56;36.90
62038;BME280;47991;42.974;12.082;2023-04-24T13:21:00;96919.76;;;22.35;36.21
62038;BME280;47991;42.974;12.082;2023-04-24T13:23:27;96923.67;;;22.05;37.63
62038;BME280;47991;42.974;12.082;2023-04-24T13:25:53;96918.33;;;22.10;38.10
62038;BME280;47991;42.974;12.082;2023-04-24T13:28:24;96913.64;;;21.92;38.41
62038;BME280;47991;42.974;12.082;2023-04-24T13:30:51;96907.61;;;21.72;38.65
62038;BME280;47991;42.974;12.082;2023-04-24T13:33:17;96900.60;;;22.07;39.50
62038;BME280;47991;42.974;12.082;2023-04-24T13:35:54;96899.32;;;22.50;39.30
62038;BME280;47991;42.974;12.082;2023-04-24T13:38:20;96899.65;;;22.78;38.48
62038;BME280;47991;42.974;12.082;2023-04-24T13:40:47;96903.19;;;23.08;38.58
62038;BME280;47991;42.974;12.082;2023-04-24T13:43:13;96899.39;;;23.26;37.73
62038;BME280;47991;42.974;12.082;2023-04-24T13:45:39;96893.26;;;23.35;37.91
62038;BME280;47991;42.974;12.082;2023-04-24T13:48:06;96897.37;;;23.07;38.68
62038;BME280;47991;42.974;12.082;2023-04-24T13:50:32;96904.13;;;22.84;39.34
62038;BME280;47991;42.974;12.082;2023-04-24T13:52:58;96905.40;;;22.76;39.01
62038;BME280;47991;42.974;12.082;2023-04-24T13:55:25;96903.23;;;22.82;38.48
62038;BME280;47991;42.974;12.082;2023-04-24T13:57:52;96901.77;;;22.78;38.41
62038;BME280;47991;42.974;12.082;2023-04-24T14:00:20;96893.57;;;23.01;37.93
62038;BME280;47991;42.974;12.082;2023-04-24T14:02:46;96891.19;;;23.13;37.74
62038;BME280;47991;42.974;12.082;2023-04-24T14:05:13;96885.98;;;23.24;38.52
62038;BME280;47991;42.974;12.082;2023-04-24T14:07:41;96889.49;;;23.16;38.68
62038;BME280;47991;42.974;12.082;2023-04-24T14:10:08;96885.45;;;23.13;38.83
62038;BME280;47991;42.974;12.082;2023-04-24T14:12:38;96890.81;;;22.84;37.54
62038;BME280;47991;42.974;12.082;2023-04-24T14:15:07;96891.30;;;22.53;37.97
62038;BME280;47991;42.974;12.082;2023-04-24T14:17:34;96894.81;;;22.01;38.02
62038;BME280;47991;42.974;12.082;2023-04-24T14:20:01;96895.42;;;21.84;39.44
62038;BME280;47991;42.974;12.082;2023-04-24T14:22:30;96891.04;;;21.82;39.41
62038;BME280;47991;42.974;12.082;2023-04-24T14:25:00;96889.35;;;21.94;39.60
62038;BME280;47991;42.974;12.082;2023-04-24T14:27:29;96886.39;;;21.84;39.90
62038;BME280;47991;42.974;12.082;2023-04-24T14:30:10;96882.44;;;21.70;39.25
62038;BME280;47991;42.974;12.082;2023-04-24T14:32:37;96886.16;;;21.47;39.42
62038;BME280;47991;42.974;12.082;2023-04-24T14:35:05;96891.14;;;21.34;39.88
62038;BME280;47991;42.974;12.082;2023-04-24T14:37:51;96894.02;;;21.57;40.22
62038;BME280;47991;42.974;12.082;2023-04-24T14:40:18;96894.55;;;21.44;39.77
62038;BME280;47991;42.974;12.082;2023-04-24T14:42:44;96899.35;;;21.17;39.99
62038;BME280;47991;42.974;12.082;2023-04-24T14:45:11;96898.30;;;20.94;40.25
62038;BME280;47991;42.974;12.082;2023-04-24T14:47:40;96891.67;;;20.85;40.54
62038;BME280;47991;42.974;12.082;2023-04-24T14:50:13;96892.73;;;20.70;41.12
62038;BME280;47991;42.974;12.082;2023-04-24T14:52:40;96892.98;;;20.69;40.72
62038;BME280;47991;42.974;12.082;2023-04-24T14:55:06;96895.92;;;20.75;40.77
62038;BME280;47991;42.974;12.082;2023-04-24T14:57:33;96896.91;;;20.65;41.35
62038;BME280;47991;42.974;12.082;2023-04-24T15:00:05;96899.30;;;20.58;42.09
62038;BME280;47991;42.974;12.082;2023-04-24T15:02:34;96898.52;;;20.45;41.91
62038;BME280;47991;42.974;12.082;2023-04-24T15:05:03;96898.58;;;20.38;41.78
62038;BME280;47991;42.974;12.082;2023-04-24T15:07:29;96900.45;;;20.28;42.33
62038;BME280;47991;42.974;12.082;2023-04-24T15:10:00;96896.30;;;20.22;42.21
62038;BME280;47991;42.974;12.082;2023-04-24T15:12:30;96895.64;;;20.21;42.10
62038;BME280;47991;42.974;12.082;2023-04-24T15:14:58;96899.61;;;20.16;41.87
62038;BME280;47991;42.974;12.082;2023-04-24T15:17:26;96896.38;;;20.12;41.17
62038;BME280;47991;42.974;12.082;2023-04-24T15:19:52;96904.43;;;19.94;42.08
62038;BME280;47991;42.974;12.082;2023-04-24T15:22:18;96916.41;;;19.90;42.77
62038;BME280;47991;42.974;12.082;2023-04-24T15:24:44;96917.64;;;19.88;44.06
62038;BME280;47991;42.974;12.082;2023-04-24T15:27:10;96917.55;;;19.85;43.61
62038;BME280;47991;42.974;12.082;2023-04-24T15:29:37;96925.20;;;20.11;43.61
62038;BME280;47991;42.974;12.082;2023-04-24T15:32:03;96925.11;;;20.43;42.75
62038;BME280;47991;42.974;12.082;2023-04-24T15:34:32;96924.89;;;20.48;42.25
62038;BME280;47991;42.974;12.082;2023-04-24T15:36:59;96924.39;;;20.43;41.42
62038;BME280;47991;42.974;12.082;2023-04-24T15:39:26;96930.88;;;20.49;41.56
62038;BME280;47991;42.974;12.082;2023-04-24T15:41:53;96931.86;;;20.57;41.33
62038;BME280;47991;42.974;12.082;2023-04-24T15:44:21;96931.37;;;20.54;41.14
62038;BME280;47991;42.974;12.082;2023-04-24T15:46:48;96938.87;;;20.54;41.57
62038;BME280;47991;42.974;12.082;2023-04-24T15:49:14;96944.70;;;20.58;41.41
62038;BME280;47991;42.974;12.082;2023-04-24T15:51:43;96944.41;;;20.62;40.76
62038;BME280;47991;42.974;12.082;2023-04-24T15:54:10;96941.81;;;20.72;40.55
62038;BME280;47991;42.974;12.082;2023-04-24T15:56:38;96947.77;;;20.75;40.74
62038;BME280;47991;42.974;12.082;2023-04-24T15:59:08;96955.55;;;20.77;40.64
62038;BME280;47991;42.974;12.082;2023-04-24T16:01:34;96955.73;;;20.79;40.77
62038;BME280;47991;42.974;12.082;2023-04-24T16:04:01;96962.73;;;20.86;41.70
62038;BME280;47991;42.974;12.082;2023-04-24T16:06:28;96965.86;;;20.87;40.43
62038;BME280;47991;42.974;12.082;2023-04-24T16:08:57;96967.96;;;20.92;40.48
62038;BME280;47991;42.974;12.082;2023-04-24T16:11:23;96973.52;;;20.75;39.97
62038;BME280;47991;42.974;12.082;2023-04-24T16:13:49;96974.21;;;20.68;40.36